sensor_id;sensor_type;location;lat;lon;timestamp;P1;durP1;ratioP1;P2;durP2;ratioP2
13026;SDS011;6580;42.680;23.324;2023-02-28T00:00:50;13.87;;;10.00;;
13026;SDS011;6580;42.680;23.324;2023-02-28T00:03:18;14.03;;;9.73;;
13026;SDS011;6580;42.680;23.324;2023-02-28T00:05:45;16.77;;;10.03;;
13026;SDS011;6580;42.680;23.324;2023-02-28T00:08:12;14.73;;;9.80;;
13026;SDS011;6580;42.680;23.324;2023-02-28T00:10:39;15.20;;;9.47;;
13026;SDS011;6580;42.680;23.324;2023-02-28T00:13:08;17.87;;;9.97;;
13026;SDS011;6580;42.680;23.324;2023-02-28T00:15:38;15.87;;;10.13;;
13026;SDS011;6580;42.680;23.324;2023-02-28T00:18:05;16.40;;;10.20;;
13026;SDS011;6580;42.680;23.324;2023-02-28T00:20:32;13.00;;;9.07;;
13026;SDS011;6580;42.680;23.324;2023-02-28T00:23:01;14.87;;;10.50;;
13026;SDS011;6580;42.680;23.324;2023-02-28T00:25:28;16.73;;;10.50;;
13026;SDS011;6580;42.680;23.324;2023-02-28T00:27:55;13.03;;;9.43;;
13026;SDS011;6580;42.680;23.324;2023-02-28T00:30:29;13.90;;;10.13;;
13026;SDS011;6580;42.680;23.324;2023-02-28T00:32:56;13.23;;;8.97;;
13026;SDS011;6580;42.680;23.324;2023-02-28T00:35:24;16.13;;;9.70;;
13026;SDS011;6580;42.680;23.324;2023-02-28T00:37:51;15.23;;;10.03;;
13026;SDS011;6580;42.680;23.324;2023-02-28T00:40:21;15.83;;;9.70;;
13026;SDS011;6580;42.680;23.324;2023-02-28T00:42:48;13.43;;;9.73;;
13026;SDS011;6580;42.680;23.324;2023-02-28T00:45:15;12.63;;;9.10;;
13026;SDS011;6580;42.680;23.324;2023-02-28T00:47:43;17.50;;;9.83;;
13026;SDS011;6580;42.680;23.324;2023-02-28T00:50:12;15.27;;;10.43;;
13026;SDS011;6580;42.680;23.324;2023-02-28T00:52:39;14.37;;;9.83;;
13026;SDS011;6580;42.680;23.324;2023-02-28T00:55:08;14.30;;;10.20;;
13026;SDS011;6580;42.680;23.324;2023-02-28T00:57:35;16.20;;;10.60;;
13026;SDS011;6580;42.680;23.324;2023-02-28T01:00:05;19.43;;;11.17;;
13026;SDS011;6580;42.680;23.324;2023-02-28T01:02:37;16.80;;;11.20;;
13026;SDS011;6580;42.680;23.324;2023-02-28T01:05:07;16.23;;;11.67;;
13026;SDS011;6580;42.680;23.324;2023-02-28T01:07:35;18.47;;;11.97;;
13026;SDS011;6580;42.680;23.324;2023-02-28T01:10:03;15.57;;;11.13;;
13026;SDS011;6580;42.680;23.324;2023-02-28T01:12:33;17.43;;;11.53;;
13026;SDS011;6580;42.680;23.324;2023-02-28T01:15:00;20.37;;;12.13;;
13026;SDS011;6580;42.680;23.324;2023-02-28T01:17:27;17.00;;;11.53;;
13026;SDS011;6580;42.680;23.324;2023-02-28T01:19:54;20.30;;;12.03;;
13026;SDS011;6580;42.680;23.324;2023-02-28T01:22:22;18.87;;;11.57;;
13026;SDS011;6580;42.680;23.324;2023-02-28T01:24:52;17.10;;;11.07;;
13026;SDS011;6580;42.680;23.324;2023-02-28T01:27:19;19.43;;;12.00;;
13026;SDS011;6580;42.680;23.324;2023-02-28T01:29:46;19.47;;;11.67;;
13026;SDS011;6580;42.680;23.324;2023-02-28T01:32:13;19.63;;;12.70;;
13026;SDS011;6580;42.680;23.324;2023-02-28T01:34:40;18.87;;;12.00;;
13026;SDS011;6580;42.680;23.324;2023-02-28T01:37:08;19.93;;;12.47;;
13026;SDS011;6580;42.680;23.324;2023-02-28T01:39:37;18.97;;;12.83;;
13026;SDS011;6580;42.680;23.324;2023-02-28T01:42:04;21.67;;;13.30;;
13026;SDS011;6580;42.680;23.324;2023-02-28T01:47:23;21.47;;;13.10;;
13026;SDS011;6580;42.680;23.324;2023-02-28T01:49:54;18.67;;;12.70;;
13026;SDS011;6580;42.680;23.324;2023-02-28T01:52:24;22.07;;;12.83;;
13026;SDS011;6580;42.680;23.324;2023-02-28T01:54:56;18.53;;;13.20;;
13026;SDS011;6580;42.680;23.324;2023-02-28T01:57:27;19.23;;;12.37;;
13026;SDS011;6580;42.680;23.324;2023-02-28T02:00:03;24.00;;;13.93;;
13026;SDS011;6580;42.680;23.324;2023-02-28T02:02:35;19.80;;;12.93;;
13026;SDS011;6580;42.680;23.324;2023-02-28T02:05:04;19.03;;;11.67;;
13026;SDS011;6580;42.680;23.324;2023-02-28T02:07:35;18.77;;;12.90;;
13026;SDS011;6580;42.680;23.324;2023-02-28T02:10:10;22.53;;;13.07;;
13026;SDS011;6580;42.680;23.324;2023-02-28T02:15:53;17.93;;;12.57;;
13026;SDS011;6580;42.680;23.324;2023-02-28T02:18:30;16.67;;;12.63;;
13026;SDS011;6580;42.680;23.324;2023-02-28T02:27:10;20.80;;;12.63;;
13026;SDS011;6580;42.680;23.324;2023-02-28T02:36:09;21.83;;;13.07;;
13026;SDS011;6580;42.680;23.324;2023-02-28T02:38:45;23.50;;;14.30;;
13026;SDS011;6580;42.680;23.324;2023-02-28T02:41:19;22.30;;;14.23;;
13026;SDS011;6580;42.680;23.324;2023-02-28T02:43:53;22.87;;;14.50;;
13026;SDS011;6580;42.680;23.324;2023-02-28T02:46:26;27.80;;;14.70;;
13026;SDS011;6580;42.680;23.324;2023-02-28T02:48:59;24.10;;;14.93;;
13026;SDS011;6580;42.680;23.324;2023-02-28T02:51:31;23.63;;;14.53;;
13026;SDS011;6580;42.680;23.324;2023-02-28T02:54:00;27.73;;;15.73;;
13026;SDS011;6580;42.680;23.324;2023-02-28T02:56:32;28.43;;;16.53;;
13026;SDS011;6580;42.680;23.324;2023-02-28T02:59:07;24.60;;;13.90;;
13026;SDS011;6580;42.680;23.324;2023-02-28T03:01:40;28.40;;;15.13;;
13026;SDS011;6580;42.680;23.324;2023-02-28T03:04:11;28.10;;;16.20;;
13026;SDS011;6580;42.680;23.324;2023-02-28T03:06:41;28.17;;;14.87;;
13026;SDS011;6580;42.680;23.324;2023-02-28T03:09:08;28.77;;;14.80;;
13026;SDS011;6580;42.680;23.324;2023-02-28T03:11:35;32.07;;;15.93;;
13026;SDS011;6580;42.680;23.324;2023-02-28T03:14:07;32.40;;;15.77;;
13026;SDS011;6580;42.680;23.324;2023-02-28T03:16:49;28.57;;;16.33;;
13026;SDS011;6580;42.680;23.324;2023-02-28T03:19:52;26.70;;;14.50;;
13026;SDS011;6580;42.680;23.324;2023-02-28T03:22:40;27.97;;;16.40;;
13026;SDS011;6580;42.680;23.324;2023-02-28T03:25:17;27.00;;;15.13;;
13026;SDS011;6580;42.680;23.324;2023-02-28T03:27:53;33.73;;;17.87;;
13026;SDS011;6580;42.680;23.324;2023-02-28T03:30:35;27.57;;;15.33;;
13026;SDS011;6580;42.680;23.324;2023-02-28T03:33:08;27.70;;;15.13;;
13026;SDS011;6580;42.680;23.324;2023-02-28T03:35:39;23.83;;;13.97;;
13026;SDS011;6580;42.680;23.324;2023-02-28T03:38:13;22.77;;;13.03;;
13026;SDS011;6580;42.680;23.324;2023-02-28T03:40:47;22.43;;;13.17;;
13026;SDS011;6580;42.680;23.324;2023-02-28T03:43:18;22.70;;;14.13;;
13026;SDS011;6580;42.680;23.324;2023-02-28T03:45:51;25.90;;;13.90;;
13026;SDS011;6580;42.680;23.324;2023-02-28T03:48:22;25.53;;;14.50;;
13026;SDS011;6580;42.680;23.324;2023-02-28T03:50:55;27.77;;;15.87;;
13026;SDS011;6580;42.680;23.324;2023-02-28T03:53:27;25.50;;;14.80;;
13026;SDS011;6580;42.680;23.324;2023-02-28T03:55:59;25.93;;;15.40;;
13026;SDS011;6580;42.680;23.324;2023-02-28T03:58:33;26.37;;;14.37;;
13026;SDS011;6580;42.680;23.324;2023-02-28T04:01:06;25.20;;;14.13;;
13026;SDS011;6580;42.680;23.324;2023-02-28T04:03:36;27.57;;;14.90;;
13026;SDS011;6580;42.680;23.324;2023-02-28T04:06:05;24.80;;;13.90;;
13026;SDS011;6580;42.680;23.324;2023-02-28T04:08:36;30.20;;;15.83;;
13026;SDS011;6580;42.680;23.324;2023-02-28T04:11:04;28.57;;;15.40;;
13026;SDS011;6580;42.680;23.324;2023-02-28T04:13:41;29.23;;;16.23;;
13026;SDS011;6580;42.680;23.324;2023-02-28T04:16:09;29.40;;;15.97;;
13026;SDS011;6580;42.680;23.324;2023-02-28T04:18:37;26.77;;;15.50;;
13026;SDS011;6580;42.680;23.324;2023-02-28T04:21:04;29.27;;;15.60;;
13026;SDS011;6580;42.680;23.324;2023-02-28T04:23:31;30.00;;;16.40;;
13026;SDS011;6580;42.680;23.324;2023-02-28T04:26:00;31.43;;;15.27;;
13026;SDS011;6580;42.680;23.324;2023-02-28T04:28:27;29.43;;;15.97;;
13026;SDS011;6580;42.680;23.324;2023-02-28T04:30:54;30.10;;;16.80;;
13026;SDS011;6580;42.680;23.324;2023-02-28T04:33:25;29.13;;;15.67;;
13026;SDS011;6580;42.680;23.324;2023-02-28T04:35:57;24.87;;;14.70;;
13026;SDS011;6580;42.680;23.324;2023-02-28T04:38:25;23.83;;;14.37;;
13026;SDS011;6580;42.680;23.324;2023-02-28T04:40:53;24.20;;;13.17;;
13026;SDS011;6580;42.680;23.324;2023-02-28T04:43:24;22.27;;;13.03;;
13026;SDS011;6580;42.680;23.324;2023-02-28T04:45:53;22.97;;;13.60;;
13026;SDS011;6580;42.680;23.324;2023-02-28T04:48:31;23.87;;;13.70;;
13026;SDS011;6580;42.680;23.324;2023-02-28T04:51:00;25.53;;;14.20;;
13026;SDS011;6580;42.680;23.324;2023-02-28T04:53:30;23.13;;;13.80;;
13026;SDS011;6580;42.680;23.324;2023-02-28T04:55:59;23.93;;;13.37;;
13026;SDS011;6580;42.680;23.324;2023-02-28T04:58:28;25.47;;;15.27;;
13026;SDS011;6580;42.680;23.324;2023-02-28T05:01:00;27.33;;;14.43;;
13026;SDS011;6580;42.680;23.324;2023-02-28T05:03:38;31.13;;;14.60;;
13026;SDS011;6580;42.680;23.324;2023-02-28T05:06:05;26.27;;;15.70;;
13026;SDS011;6580;42.680;23.324;2023-02-28T05:08:32;27.13;;;16.27;;
13026;SDS011;6580;42.680;23.324;2023-02-28T05:10:59;31.90;;;16.27;;
13026;SDS011;6580;42.680;23.324;2023-02-28T05:13:28;23.10;;;14.80;;
13026;SDS011;6580;42.680;23.324;2023-02-28T05:15:55;27.03;;;15.77;;
13026;SDS011;6580;42.680;23.324;2023-02-28T05:18:22;28.03;;;15.60;;
13026;SDS011;6580;42.680;23.324;2023-02-28T05:20:49;25.77;;;15.10;;
13026;SDS011;6580;42.680;23.324;2023-02-28T05:23:16;25.03;;;14.37;;
13026;SDS011;6580;42.680;23.324;2023-02-28T05:25:45;22.87;;;14.43;;
13026;SDS011;6580;42.680;23.324;2023-02-28T05:28:13;27.33;;;15.67;;
13026;SDS011;6580;42.680;23.324;2023-02-28T05:30:42;23.10;;;13.97;;
13026;SDS011;6580;42.680;23.324;2023-02-28T05:33:09;26.77;;;14.93;;
13026;SDS011;6580;42.680;23.324;2023-02-28T05:35:37;26.00;;;14.83;;
13026;SDS011;6580;42.680;23.324;2023-02-28T05:38:05;26.20;;;14.17;;
13026;SDS011;6580;42.680;23.324;2023-02-28T05:40:33;24.03;;;14.23;;
13026;SDS011;6580;42.680;23.324;2023-02-28T05:42:59;26.67;;;14.90;;
13026;SDS011;6580;42.680;23.324;2023-02-28T05:45:30;26.13;;;15.03;;
13026;SDS011;6580;42.680;23.324;2023-02-28T05:47:59;25.13;;;15.97;;
13026;SDS011;6580;42.680;23.324;2023-02-28T05:50:26;26.67;;;15.37;;
13026;SDS011;6580;42.680;23.324;2023-02-28T05:52:57;27.77;;;15.50;;
13026;SDS011;6580;42.680;23.324;2023-02-28T05:55:24;24.50;;;15.60;;
13026;SDS011;6580;42.680;23.324;2023-02-28T05:57:51;30.60;;;15.50;;
13026;SDS011;6580;42.680;23.324;2023-02-28T06:00:18;27.03;;;14.47;;
13026;SDS011;6580;42.680;23.324;2023-02-28T06:02:46;24.13;;;14.43;;
13026;SDS011;6580;42.680;23.324;2023-02-28T06:05:15;26.60;;;16.40;;
13026;SDS011;6580;42.680;23.324;2023-02-28T06:07:47;26.23;;;15.03;;
13026;SDS011;6580;42.680;23.324;2023-02-28T06:10:14;30.77;;;16.10;;
13026;SDS011;6580;42.680;23.324;2023-02-28T06:12:41;27.60;;;15.80;;
13026;SDS011;6580;42.680;23.324;2023-02-28T06:15:10;24.83;;;14.80;;
13026;SDS011;6580;42.680;23.324;2023-02-28T06:17:39;29.47;;;17.87;;
13026;SDS011;6580;42.680;23.324;2023-02-28T06:20:08;29.83;;;15.97;;
13026;SDS011;6580;42.680;23.324;2023-02-28T06:22:39;27.07;;;15.93;;
13026;SDS011;6580;42.680;23.324;2023-02-28T06:25:06;27.50;;;15.57;;
13026;SDS011;6580;42.680;23.324;2023-02-28T06:27:36;29.00;;;15.60;;
13026;SDS011;6580;42.680;23.324;2023-02-28T06:30:03;29.93;;;16.67;;
13026;SDS011;6580;42.680;23.324;2023-02-28T06:32:31;35.90;;;17.33;;
13026;SDS011;6580;42.680;23.324;2023-02-28T06:34:59;28.33;;;17.43;;
13026;SDS011;6580;42.680;23.324;2023-02-28T06:37:26;32.03;;;17.43;;
13026;SDS011;6580;42.680;23.324;2023-02-28T06:39:55;29.50;;;17.27;;
13026;SDS011;6580;42.680;23.324;2023-02-28T06:42:22;31.67;;;17.43;;
13026;SDS011;6580;42.680;23.324;2023-02-28T06:44:50;31.07;;;17.60;;
13026;SDS011;6580;42.680;23.324;2023-02-28T06:47:17;28.37;;;17.37;;
13026;SDS011;6580;42.680;23.324;2023-02-28T06:49:46;28.53;;;17.13;;
13026;SDS011;6580;42.680;23.324;2023-02-28T06:52:14;32.23;;;18.20;;
13026;SDS011;6580;42.680;23.324;2023-02-28T06:54:41;33.00;;;19.93;;
13026;SDS011;6580;42.680;23.324;2023-02-28T06:57:13;28.53;;;15.97;;
13026;SDS011;6580;42.680;23.324;2023-02-28T06:59:42;26.70;;;17.20;;
13026;SDS011;6580;42.680;23.324;2023-02-28T07:02:10;29.20;;;18.17;;
13026;SDS011;6580;42.680;23.324;2023-02-28T07:04:37;34.73;;;19.13;;
13026;SDS011;6580;42.680;23.324;2023-02-28T07:07:05;32.37;;;16.90;;
13026;SDS011;6580;42.680;23.324;2023-02-28T07:09:32;29.40;;;17.67;;
13026;SDS011;6580;42.680;23.324;2023-02-28T07:11:59;30.50;;;18.00;;
13026;SDS011;6580;42.680;23.324;2023-02-28T07:14:28;26.40;;;16.80;;
13026;SDS011;6580;42.680;23.324;2023-02-28T07:16:55;29.20;;;18.10;;
13026;SDS011;6580;42.680;23.324;2023-02-28T07:19:22;27.97;;;17.87;;
13026;SDS011;6580;42.680;23.324;2023-02-28T07:21:48;26.67;;;16.10;;
13026;SDS011;6580;42.680;23.324;2023-02-28T07:24:15;27.00;;;15.80;;
13026;SDS011;6580;42.680;23.324;2023-02-28T07:26:44;26.27;;;16.67;;
13026;SDS011;6580;42.680;23.324;2023-02-28T07:29:11;27.37;;;16.17;;
13026;SDS011;6580;42.680;23.324;2023-02-28T07:31:39;24.37;;;15.73;;
13026;SDS011;6580;42.680;23.324;2023-02-28T07:34:06;26.37;;;16.30;;
13026;SDS011;6580;42.680;23.324;2023-02-28T07:36:33;27.70;;;16.67;;
13026;SDS011;6580;42.680;23.324;2023-02-28T07:39:03;23.27;;;15.93;;
13026;SDS011;6580;42.680;23.324;2023-02-28T07:41:29;22.07;;;15.37;;
13026;SDS011;6580;42.680;23.324;2023-02-28T07:43:59;22.37;;;15.57;;
13026;SDS011;6580;42.680;23.324;2023-02-28T07:46:26;22.50;;;14.33;;
13026;SDS011;6580;42.680;23.324;2023-02-28T07:48:55;24.53;;;16.47;;
13026;SDS011;6580;42.680;23.324;2023-02-28T07:51:24;22.40;;;14.73;;
13026;SDS011;6580;42.680;23.324;2023-02-28T07:53:52;24.50;;;15.67;;
13026;SDS011;6580;42.680;23.324;2023-02-28T07:56:21;23.13;;;14.80;;
13026;SDS011;6580;42.680;23.324;2023-02-28T07:58:48;24.57;;;15.83;;
13026;SDS011;6580;42.680;23.324;2023-02-28T08:01:15;23.10;;;15.00;;
13026;SDS011;6580;42.680;23.324;2023-02-28T08:03:44;23.80;;;15.33;;
13026;SDS011;6580;42.680;23.324;2023-02-28T08:06:16;26.77;;;16.37;;
13026;SDS011;6580;42.680;23.324;2023-02-28T08:11:30;23.50;;;15.90;;
13026;SDS011;6580;42.680;23.324;2023-02-28T08:13:57;24.47;;;15.50;;
13026;SDS011;6580;42.680;23.324;2023-02-28T08:16:24;22.63;;;15.23;;
13026;SDS011;6580;42.680;23.324;2023-02-28T08:18:51;21.37;;;14.10;;
13026;SDS011;6580;42.680;23.324;2023-02-28T08:21:23;20.60;;;13.73;;
13026;SDS011;6580;42.680;23.324;2023-02-28T08:23:50;22.43;;;14.23;;
13026;SDS011;6580;42.680;23.324;2023-02-28T08:26:18;23.13;;;14.13;;
13026;SDS011;6580;42.680;23.324;2023-02-28T08:28:45;21.10;;;14.77;;
13026;SDS011;6580;42.680;23.324;2023-02-28T08:31:13;21.53;;;14.00;;
13026;SDS011;6580;42.680;23.324;2023-02-28T08:33:42;22.23;;;15.97;;
13026;SDS011;6580;42.680;23.324;2023-02-28T08:36:09;22.47;;;16.17;;
13026;SDS011;6580;42.680;23.324;2023-02-28T08:38:39;20.97;;;15.47;;
13026;SDS011;6580;42.680;23.324;2023-02-28T08:41:06;23.70;;;15.90;;
13026;SDS011;6580;42.680;23.324;2023-02-28T08:43:35;25.23;;;16.43;;
13026;SDS011;6580;42.680;23.324;2023-02-28T08:46:02;25.83;;;16.77;;
13026;SDS011;6580;42.680;23.324;2023-02-28T08:48:32;28.77;;;16.50;;
13026;SDS011;6580;42.680;23.324;2023-02-28T08:51:04;27.20;;;17.17;;
13026;SDS011;6580;42.680;23.324;2023-02-28T08:53:32;20.70;;;15.37;;
13026;SDS011;6580;42.680;23.324;2023-02-28T08:56:01;23.37;;;15.67;;
13026;SDS011;6580;42.680;23.324;2023-02-28T08:58:30;25.73;;;16.83;;
13026;SDS011;6580;42.680;23.324;2023-02-28T09:00:57;25.57;;;16.27;;
13026;SDS011;6580;42.680;23.324;2023-02-28T09:03:26;26.73;;;16.10;;
13026;SDS011;6580;42.680;23.324;2023-02-28T09:05:56;25.07;;;17.47;;
13026;SDS011;6580;42.680;23.324;2023-02-28T09:08:26;25.13;;;15.20;;
13026;SDS011;6580;42.680;23.324;2023-02-28T09:10:55;26.13;;;16.00;;
13026;SDS011;6580;42.680;23.324;2023-02-28T09:13:24;21.77;;;15.30;;
13026;SDS011;6580;42.680;23.324;2023-02-28T09:15:52;19.77;;;13.97;;
13026;SDS011;6580;42.680;23.324;2023-02-28T09:18:19;21.83;;;13.87;;
13026;SDS011;6580;42.680;23.324;2023-02-28T09:20:47;33.57;;;19.60;;
13026;SDS011;6580;42.680;23.324;2023-02-28T09:23:14;34.10;;;22.10;;
13026;SDS011;6580;42.680;23.324;2023-02-28T09:25:44;35.70;;;22.77;;
13026;SDS011;6580;42.680;23.324;2023-02-28T09:28:12;32.37;;;21.87;;
13026;SDS011;6580;42.680;23.324;2023-02-28T09:30:42;33.57;;;20.03;;
13026;SDS011;6580;42.680;23.324;2023-02-28T09:33:10;35.57;;;21.10;;
13026;SDS011;6580;42.680;23.324;2023-02-28T09:35:37;30.17;;;18.97;;
13026;SDS011;6580;42.680;23.324;2023-02-28T09:38:05;32.83;;;20.73;;
13026;SDS011;6580;42.680;23.324;2023-02-28T09:40:34;33.03;;;20.97;;
13026;SDS011;6580;42.680;23.324;2023-02-28T09:43:05;27.97;;;18.43;;
13026;SDS011;6580;42.680;23.324;2023-02-28T09:45:33;32.10;;;17.63;;
13026;SDS011;6580;42.680;23.324;2023-02-28T09:48:06;38.53;;;21.17;;
13026;SDS011;6580;42.680;23.324;2023-02-28T09:50:40;35.20;;;21.20;;
13026;SDS011;6580;42.680;23.324;2023-02-28T09:53:14;35.87;;;21.40;;
13026;SDS011;6580;42.680;23.324;2023-02-28T09:55:48;34.10;;;21.27;;
13026;SDS011;6580;42.680;23.324;2023-02-28T09:58:20;30.73;;;21.30;;
13026;SDS011;6580;42.680;23.324;2023-02-28T10:00:54;23.77;;;15.50;;
13026;SDS011;6580;42.680;23.324;2023-02-28T10:03:30;17.23;;;10.87;;
13026;SDS011;6580;42.680;23.324;2023-02-28T10:06:05;17.50;;;10.60;;
13026;SDS011;6580;42.680;23.324;2023-02-28T10:08:40;16.23;;;9.87;;
13026;SDS011;6580;42.680;23.324;2023-02-28T10:11:12;16.37;;;10.23;;
13026;SDS011;6580;42.680;23.324;2023-02-28T10:13:46;12.63;;;8.37;;
13026;SDS011;6580;42.680;23.324;2023-02-28T10:16:20;12.73;;;9.10;;
13026;SDS011;6580;42.680;23.324;2023-02-28T10:18:56;12.33;;;9.10;;
13026;SDS011;6580;42.680;23.324;2023-02-28T10:21:30;13.20;;;8.77;;
13026;SDS011;6580;42.680;23.324;2023-02-28T10:24:03;14.87;;;9.60;;
13026;SDS011;6580;42.680;23.324;2023-02-28T10:26:37;15.83;;;10.70;;
13026;SDS011;6580;42.680;23.324;2023-02-28T10:29:07;12.30;;;8.33;;
13026;SDS011;6580;42.680;23.324;2023-02-28T10:31:36;14.87;;;9.70;;
13026;SDS011;6580;42.680;23.324;2023-02-28T10:34:05;12.40;;;8.73;;
13026;SDS011;6580;42.680;23.324;2023-02-28T10:36:33;11.40;;;8.10;;
13026;SDS011;6580;42.680;23.324;2023-02-28T10:39:00;12.63;;;8.83;;
13026;SDS011;6580;42.680;23.324;2023-02-28T10:41:28;12.13;;;9.23;;
13026;SDS011;6580;42.680;23.324;2023-02-28T10:44:12;13.87;;;7.67;;
13026;SDS011;6580;42.680;23.324;2023-02-28T10:46:40;14.00;;;8.33;;
13026;SDS011;6580;42.680;23.324;2023-02-28T10:49:14;12.40;;;8.60;;
13026;SDS011;6580;42.680;23.324;2023-02-28T10:51:45;12.13;;;7.70;;
13026;SDS011;6580;42.680;23.324;2023-02-28T10:54:18;15.37;;;8.47;;
13026;SDS011;6580;42.680;23.324;2023-02-28T10:59:41;12.57;;;7.90;;
13026;SDS011;6580;42.680;23.324;2023-02-28T11:02:28;13.80;;;8.43;;
13026;SDS011;6580;42.680;23.324;2023-02-28T11:05:00;19.10;;;9.70;;
13026;SDS011;6580;42.680;23.324;2023-02-28T11:07:27;13.33;;;7.87;;
13026;SDS011;6580;42.680;23.324;2023-02-28T11:09:54;12.73;;;8.00;;
13026;SDS011;6580;42.680;23.324;2023-02-28T11:12:24;12.03;;;8.33;;
13026;SDS011;6580;42.680;23.324;2023-02-28T11:14:56;12.13;;;7.77;;
13026;SDS011;6580;42.680;23.324;2023-02-28T11:17:27;10.40;;;8.20;;
13026;SDS011;6580;42.680;23.324;2023-02-28T11:19:56;13.43;;;8.10;;
13026;SDS011;6580;42.680;23.324;2023-02-28T11:22:31;12.20;;;8.47;;
13026;SDS011;6580;42.680;23.324;2023-02-28T11:25:06;11.83;;;8.07;;
13026;SDS011;6580;42.680;23.324;2023-02-28T11:27:46;10.07;;;7.47;;
13026;SDS011;6580;42.680;23.324;2023-02-28T11:30:23;13.40;;;9.67;;
13026;SDS011;6580;42.680;23.324;2023-02-28T11:32:51;13.53;;;9.17;;
13026;SDS011;6580;42.680;23.324;2023-02-28T11:35:21;14.57;;;8.30;;
13026;SDS011;6580;42.680;23.324;2023-02-28T11:37:53;12.50;;;8.10;;
13026;SDS011;6580;42.680;23.324;2023-02-28T11:40:22;10.97;;;7.50;;
13026;SDS011;6580;42.680;23.324;2023-02-28T11:43:01;14.97;;;9.43;;
13026;SDS011;6580;42.680;23.324;2023-02-28T11:45:44;12.83;;;9.20;;
13026;SDS011;6580;42.680;23.324;2023-02-28T11:48:22;17.13;;;8.73;;
13026;SDS011;6580;42.680;23.324;2023-02-28T11:51:02;13.63;;;9.30;;
13026;SDS011;6580;42.680;23.324;2023-02-28T11:53:44;12.20;;;8.73;;
13026;SDS011;6580;42.680;23.324;2023-02-28T11:56:36;15.53;;;9.27;;
13026;SDS011;6580;42.680;23.324;2023-02-28T11:59:14;13.90;;;9.37;;
13026;SDS011;6580;42.680;23.324;2023-02-28T12:02:00;12.90;;;8.43;;
13026;SDS011;6580;42.680;23.324;2023-02-28T12:04:42;11.17;;;8.33;;
13026;SDS011;6580;42.680;23.324;2023-02-28T12:07:22;14.23;;;9.10;;
13026;SDS011;6580;42.680;23.324;2023-02-28T12:10:00;13.57;;;8.43;;
13026;SDS011;6580;42.680;23.324;2023-02-28T12:12:38;13.63;;;8.90;;
13026;SDS011;6580;42.680;23.324;2023-02-28T12:15:21;14.30;;;9.40;;
13026;SDS011;6580;42.680;23.324;2023-02-28T12:17:59;12.23;;;8.10;;
13026;SDS011;6580;42.680;23.324;2023-02-28T12:20:39;11.93;;;8.57;;
13026;SDS011;6580;42.680;23.324;2023-02-28T12:23:22;13.33;;;8.47;;
13026;SDS011;6580;42.680;23.324;2023-02-28T12:26:12;12.27;;;8.67;;
13026;SDS011;6580;42.680;23.324;2023-02-28T12:28:46;11.63;;;8.20;;
13026;SDS011;6580;42.680;23.324;2023-02-28T12:31:16;12.13;;;7.67;;
13026;SDS011;6580;42.680;23.324;2023-02-28T12:33:47;13.30;;;8.07;;
13026;SDS011;6580;42.680;23.324;2023-02-28T12:36:19;14.10;;;8.77;;
13026;SDS011;6580;42.680;23.324;2023-02-28T12:38:50;12.60;;;8.20;;
13026;SDS011;6580;42.680;23.324;2023-02-28T12:41:29;13.00;;;8.67;;
13026;SDS011;6580;42.680;23.324;2023-02-28T12:44:03;11.87;;;8.40;;
13026;SDS011;6580;42.680;23.324;2023-02-28T12:46:36;13.73;;;9.43;;
13026;SDS011;6580;42.680;23.324;2023-02-28T12:49:09;19.00;;;12.13;;
13026;SDS011;6580;42.680;23.324;2023-02-28T12:51:39;13.73;;;7.97;;
13026;SDS011;6580;42.680;23.324;2023-02-28T12:54:10;11.70;;;8.13;;
13026;SDS011;6580;42.680;23.324;2023-02-28T12:56:47;10.80;;;7.20;;
13026;SDS011;6580;42.680;23.324;2023-02-28T12:59:22;16.17;;;7.47;;
13026;SDS011;6580;42.680;23.324;2023-02-28T13:01:57;11.90;;;7.70;;
13026;SDS011;6580;42.680;23.324;2023-02-28T13:10:38;16.33;;;8.53;;
13026;SDS011;6580;42.680;23.324;2023-02-28T13:13:11;10.67;;;7.17;;
13026;SDS011;6580;42.680;23.324;2023-02-28T13:15:41;14.30;;;8.70;;
13026;SDS011;6580;42.680;23.324;2023-02-28T13:18:28;12.57;;;8.50;;
13026;SDS011;6580;42.680;23.324;2023-02-28T13:21:03;13.97;;;8.47;;
13026;SDS011;6580;42.680;23.324;2023-02-28T13:23:39;12.23;;;8.63;;
13026;SDS011;6580;42.680;23.324;2023-02-28T13:29:29;17.00;;;9.37;;
13026;SDS011;6580;42.680;23.324;2023-02-28T13:44:05;14.37;;;7.80;;
13026;SDS011;6580;42.680;23.324;2023-02-28T13:49:46;13.33;;;7.63;;
13026;SDS011;6580;42.680;23.324;2023-02-28T13:52:15;11.40;;;7.30;;
13026;SDS011;6580;42.680;23.324;2023-02-28T13:54:54;13.67;;;7.33;;
13026;SDS011;6580;42.680;23.324;2023-02-28T13:57:35;9.70;;;7.10;;
13026;SDS011;6580;42.680;23.324;2023-02-28T14:00:16;12.07;;;7.90;;
13026;SDS011;6580;42.680;23.324;2023-02-28T14:03:00;11.73;;;7.33;;
13026;SDS011;6580;42.680;23.324;2023-02-28T14:05:40;13.30;;;7.17;;
13026;SDS011;6580;42.680;23.324;2023-02-28T14:08:08;11.50;;;7.93;;
13026;SDS011;6580;42.680;23.324;2023-02-28T14:10:42;13.43;;;8.17;;
13026;SDS011;6580;42.680;23.324;2023-02-28T14:13:14;10.87;;;7.07;;
13026;SDS011;6580;42.680;23.324;2023-02-28T14:16:09;11.67;;;6.87;;
13026;SDS011;6580;42.680;23.324;2023-02-28T14:18:47;9.57;;;7.40;;
13026;SDS011;6580;42.680;23.324;2023-02-28T14:24:10;16.20;;;7.43;;
13026;SDS011;6580;42.680;23.324;2023-02-28T14:27:12;11.30;;;8.10;;
13026;SDS011;6580;42.680;23.324;2023-02-28T14:30:04;13.43;;;9.57;;
13026;SDS011;6580;42.680;23.324;2023-02-28T14:33:04;12.23;;;7.87;;
13026;SDS011;6580;42.680;23.324;2023-02-28T14:38:42;14.60;;;8.63;;
13026;SDS011;6580;42.680;23.324;2023-02-28T14:41:15;13.43;;;8.10;;
13026;SDS011;6580;42.680;23.324;2023-02-28T14:43:50;13.33;;;7.37;;
13026;SDS011;6580;42.680;23.324;2023-02-28T14:46:20;13.47;;;7.67;;
13026;SDS011;6580;42.680;23.324;2023-02-28T14:48:54;10.53;;;6.80;;
13026;SDS011;6580;42.680;23.324;2023-02-28T14:51:22;11.67;;;7.33;;
13026;SDS011;6580;42.680;23.324;2023-02-28T14:53:55;11.67;;;7.40;;
13026;SDS011;6580;42.680;23.324;2023-02-28T14:56:25;14.57;;;6.97;;
13026;SDS011;6580;42.680;23.324;2023-02-28T14:58:57;15.47;;;7.37;;
13026;SDS011;6580;42.680;23.324;2023-02-28T15:01:25;11.07;;;6.87;;
13026;SDS011;6580;42.680;23.324;2023-02-28T15:03:57;13.40;;;7.37;;
13026;SDS011;6580;42.680;23.324;2023-02-28T15:06:28;19.00;;;7.10;;
13026;SDS011;6580;42.680;23.324;2023-02-28T15:09:14;14.57;;;7.50;;
13026;SDS011;6580;42.680;23.324;2023-02-28T15:11:41;9.77;;;6.63;;
13026;SDS011;6580;42.680;23.324;2023-02-28T15:14:14;11.23;;;7.47;;
13026;SDS011;6580;42.680;23.324;2023-02-28T15:16:46;9.73;;;6.97;;
13026;SDS011;6580;42.680;23.324;2023-02-28T15:19:19;10.60;;;7.43;;
13026;SDS011;6580;42.680;23.324;2023-02-28T15:21:51;11.27;;;8.37;;
13026;SDS011;6580;42.680;23.324;2023-02-28T15:24:30;12.97;;;7.23;;
13026;SDS011;6580;42.680;23.324;2023-02-28T15:27:03;10.57;;;7.43;;
13026;SDS011;6580;42.680;23.324;2023-02-28T15:29:33;11.43;;;6.90;;
13026;SDS011;6580;42.680;23.324;2023-02-28T15:32:20;12.80;;;6.83;;
13026;SDS011;6580;42.680;23.324;2023-02-28T15:34:51;10.07;;;6.33;;
13026;SDS011;6580;42.680;23.324;2023-02-28T15:37:29;15.47;;;7.13;;
13026;SDS011;6580;42.680;23.324;2023-02-28T15:40:14;9.73;;;6.90;;
13026;SDS011;6580;42.680;23.324;2023-02-28T15:42:57;14.27;;;7.63;;
13026;SDS011;6580;42.680;23.324;2023-02-28T15:45:26;10.43;;;6.17;;